»·PEaware :: VIPER16 KSJC-KRNO

VIPER16 :: KSJC-KRNO

FLIGHT INFORMATION

Flight Status: Arrived
Operator: Unknown
More flights by this operator :: More flights under this callsign
Pilot: Kevin M. (7)
Aircraft: GENERAL DYNAMICS F-16 FIGHTING FALCON
(F16)
More flights by this aircraft type
Origin: KSJC Mineta San Jose Intl
United States
Destination: KRNO Reno/Tahoe Intl
United States
More flights between these airports :: More routes between these airports
Route: +
File this flight plan on PilotEdge
Remarks:
Altitude:
(Current/Filed)
0ft
Speed:
(Current/Filed)
0kts
Departed: 25-Oct-19 07:10 AM
Arrived: 25-Oct-19 07:46 AM
Distance/Time
Traveled:
163nm/0:36
Distance/Time
To Go:
Arrived

Flight Plot

Page will automatically refresh every two minutes.

Flight plan parsing failed; only flown route is shown


Map Options




Map Legend


Flown Route
Filed Route
Departure Airport
Arrival Airport
Navaid (VOR, NDB)
Fix

Horizontal Profiles

Position Reports

Time Latitude Longitude Heading Altitude Ground
Speed
25-Oct-19 07:06 37.358345 -121.929952 38 57ft 0kts
25-Oct-19 07:07 37.356685 -121.925878 49 59ft 18kts
25-Oct-19 07:08 37.352090 -121.920147 110 65ft 14kts
25-Oct-19 07:09 37.370294 -121.937631 318 645ft 287kts
25-Oct-19 07:10 37.369674 -121.980664 133 1057ft 216kts
25-Oct-19 07:11 37.332721 -121.941883 141 1453ft 157kts
25-Oct-19 07:12 37.331672 -121.897121 358 1231ft 182kts
25-Oct-19 07:13 37.369950 -121.937884 318 401ft 219kts
25-Oct-19 07:14 37.341241 -121.937741 138 1536ft 233kts
25-Oct-19 07:15 37.330676 -121.897553 347 842ft 172kts
25-Oct-19 07:16 37.375285 -121.943902 307 532ft 272kts
25-Oct-19 07:17 37.331524 -121.913192 59 1519ft 245kts
25-Oct-19 07:18 37.373189 -121.941434 317 793ft 231kts
25-Oct-19 07:19 37.429137 -121.985763 47 4345ft 252kts
25-Oct-19 07:20 37.473572 -121.920938 50 4099ft 259kts
25-Oct-19 07:21 37.515184 -121.844713 56 3510ft 255kts
25-Oct-19 07:22 37.564057 -121.835783 319 4271ft 274kts
25-Oct-19 07:23 37.624871 -121.806700 38 6351ft 262kts
25-Oct-19 07:24 37.675284 -121.753130 36 8049ft 296kts
25-Oct-19 07:25 37.773601 -121.703035 17 15762ft 594kts
25-Oct-19 07:26 37.927547 -121.646878 15 15757ft 573kts
25-Oct-19 07:27 38.039744 -121.505841 56 15917ft 593kts
25-Oct-19 07:28 38.140192 -121.337861 50 16200ft 594kts
25-Oct-19 07:29 38.249167 -121.180953 44 15677ft 594kts
25-Oct-19 07:30 38.368828 -121.034482 42 15508ft 601kts
25-Oct-19 07:31 38.492281 -120.888624 42 15526ft 606kts
25-Oct-19 07:32 38.615581 -120.742262 42 15528ft 606kts
25-Oct-19 07:33 38.738872 -120.595799 42 15530ft 606kts
25-Oct-19 07:34 38.862586 -120.448661 42 15447ft 608kts
25-Oct-19 07:35 38.985500 -120.301227 42 15477ft 601kts
25-Oct-19 07:36 39.106459 -120.153649 42 15505ft 596kts
25-Oct-19 07:37 39.226047 -120.006618 46 15399ft 573kts
25-Oct-19 07:38 39.317969 -119.893146 21 16104ft 368kts
25-Oct-19 07:39 39.413243 -119.849612 6 12733ft 373kts
25-Oct-19 07:40 39.514895 -119.831332 17 8389ft 391kts
25-Oct-19 07:41 39.535351 -119.768833 181 5049ft 202kts
25-Oct-19 07:42 39.486460 -119.768421 174 4626ft 277kts
25-Oct-19 07:43 39.510903 -119.804637 352 5518ft 284kts
25-Oct-19 07:44 39.537685 -119.768450 180 5064ft 238kts
25-Oct-19 07:45 39.494306 -119.769273 179 4408ft 28kts
25-Oct-19 07:46 39.495419 -119.770697 0 4409ft 18kts
25-Oct-19 07:47 39.499451 -119.771270 267 4409ft 13kts
25-Oct-19 07:48 39.499096 -119.772703 210 4410ft 0kts
25-Oct-19 07:49 39.499116 -119.773222 356 4410ft 1kts
25-Oct-19 07:50 39.499150 -119.773223 1 4410ft 0kts
25-Oct-19 07:51 39.499150 -119.773223 1 4410ft 0kts
25-Oct-19 07:52 39.499150 -119.773223 1 4410ft 0kts
25-Oct-19 07:53 39.499150 -119.773223 1 4410ft 0kts
25-Oct-19 07:54 39.499150 -119.773223 1 4410ft 0kts
25-Oct-19 07:55 39.499150 -119.773223 1 4410ft 0kts
25-Oct-19 07:56 39.499150 -119.773223 1 4410ft 0kts
25-Oct-19 07:57 39.499150 -119.773223 1 4410ft 0kts

Navigation Log

Ident Type
Flight plan parsing failed, navigation log unavailable